createdAt,value
2018-08-04T00:01:24.313Z,3.27
2018-08-04T00:03:53.349Z,3.03
2018-08-04T00:06:22.674Z,2.67
2018-08-04T00:08:51.745Z,2.70
2018-08-04T00:11:20.943Z,2.73
2018-08-04T00:13:50.135Z,3.00
2018-08-04T00:16:19.386Z,2.63
2018-08-04T00:18:48.652Z,2.73
2018-08-04T00:21:17.861Z,2.50
2018-08-04T00:23:47.053Z,2.97
2018-08-04T00:26:16.229Z,2.70
2018-08-04T00:28:45.477Z,2.60
2018-08-04T00:31:14.677Z,2.43
2018-08-04T00:33:43.676Z,2.70
2018-08-04T00:36:12.858Z,2.83
2018-08-04T00:38:42.107Z,2.70
2018-08-04T00:41:11.344Z,2.70
2018-08-04T00:43:40.654Z,2.63
2018-08-04T00:46:10.185Z,2.67
2018-08-04T00:48:39.316Z,3.00
2018-08-04T00:51:08.783Z,3.17
2018-08-04T00:53:38.112Z,2.77
2018-08-04T00:56:07.511Z,2.40
2018-08-04T00:58:36.781Z,2.50
2018-08-04T01:01:05.916Z,2.97
2018-08-04T01:03:35.221Z,2.63
2018-08-04T01:06:04.067Z,2.60
2018-08-04T01:08:33.269Z,2.50
2018-08-04T01:11:02.410Z,2.47
2018-08-04T01:13:31.571Z,2.33
2018-08-04T01:16:00.908Z,2.50
2018-08-04T01:18:29.447Z,2.60
2018-08-04T01:20:58.808Z,2.67
2018-08-04T01:23:28.002Z,2.50
2018-08-04T01:25:56.614Z,2.70
2018-08-04T01:28:27.169Z,2.70
2018-08-04T01:30:56.306Z,2.47
2018-08-04T01:33:25.631Z,2.63
2018-08-04T01:35:54.955Z,2.30
2018-08-04T01:38:24.236Z,3.00
2018-08-04T01:40:54.271Z,2.80
2018-08-04T01:43:23.533Z,2.70
2018-08-04T01:45:52.885Z,2.80
2018-08-04T01:48:22.010Z,2.70
2018-08-04T01:50:51.345Z,2.70
2018-08-04T01:53:20.475Z,2.53
2018-08-04T01:55:49.269Z,2.53
2018-08-04T01:58:17.870Z,2.97
2018-08-04T02:00:47.018Z,2.73
2018-08-04T02:03:16.240Z,2.63
2018-08-04T02:05:45.474Z,2.50
2018-08-04T02:08:14.554Z,2.70
2018-08-04T02:10:43.208Z,2.50
2018-08-04T02:13:12.417Z,2.53
2018-08-04T02:15:41.723Z,2.03
2018-08-04T02:18:10.857Z,2.80
2018-08-04T02:20:39.951Z,2.23
2018-08-04T02:23:08.550Z,2.13
2018-08-04T02:25:37.943Z,2.50
2018-08-04T02:28:07.144Z,2.27
2018-08-04T02:30:35.800Z,2.10
2018-08-04T02:33:05.051Z,2.00
2018-08-04T02:35:34.265Z,2.27
2018-08-04T02:38:03.747Z,2.10
2018-08-04T02:40:32.960Z,2.10
2018-08-04T02:43:02.366Z,3.10
2018-08-04T02:45:30.982Z,2.60
2018-08-04T02:48:00.048Z,2.53
2018-08-04T02:50:29.189Z,2.20
2018-08-04T02:52:58.566Z,2.03
2018-08-04T02:55:27.286Z,2.30
2018-08-04T02:57:56.638Z,2.43
2018-08-04T03:00:25.856Z,2.40
2018-08-04T03:02:55.171Z,2.20
2018-08-04T03:05:24.377Z,2.20
2018-08-04T03:07:53.750Z,2.10
2018-08-04T03:10:24.498Z,2.13
2018-08-04T03:12:53.980Z,2.67
2018-08-04T03:15:23.205Z,1.90
2018-08-04T03:17:52.421Z,2.00
2018-08-04T03:20:21.532Z,2.10
2018-08-04T03:22:50.696Z,2.20
2018-08-04T03:25:19.918Z,1.97
2018-08-04T03:27:48.999Z,2.07
2018-08-04T03:30:18.084Z,2.13
2018-08-04T03:32:47.322Z,2.10
2018-08-04T03:35:16.081Z,1.80
2018-08-04T03:37:45.257Z,1.73
2018-08-04T03:40:14.524Z,2.10
2018-08-04T03:42:43.317Z,2.20
2018-08-04T03:45:11.933Z,1.90
2018-08-04T03:47:41.129Z,1.93
2018-08-04T03:50:10.411Z,2.30
2018-08-04T03:52:39.759Z,1.93
2018-08-04T03:55:09.017Z,2.07
2018-08-04T03:57:38.013Z,2.50
2018-08-04T04:00:06.920Z,1.70
2018-08-04T04:02:36.185Z,2.03
2018-08-04T04:05:05.493Z,1.90
2018-08-04T04:07:34.737Z,1.93
2018-08-04T04:10:03.919Z,1.90
2018-08-04T04:12:33.150Z,2.20
2018-08-04T04:15:02.466Z,2.00
2018-08-04T04:17:36.029Z,2.13
2018-08-04T04:20:04.835Z,2.40
2018-08-04T04:22:33.512Z,2.57
2018-08-04T04:25:02.216Z,2.23
2018-08-04T04:27:31.370Z,2.57
2018-08-04T04:30:00.705Z,1.93
2018-08-04T04:32:30.090Z,2.23
2018-08-04T04:34:59.416Z,2.30
2018-08-04T04:37:28.614Z,2.53
2018-08-04T04:39:57.826Z,2.03
2018-08-04T04:42:26.912Z,2.40
2018-08-04T04:44:56.178Z,2.13
2018-08-04T04:47:26.745Z,1.90
2018-08-04T04:49:55.971Z,2.30
2018-08-04T04:52:25.230Z,1.93
2018-08-04T04:54:54.602Z,2.30
2018-08-04T04:57:23.951Z,2.13
2018-08-04T04:59:53.066Z,1.80
2018-08-04T05:02:22.178Z,1.70
2018-08-04T05:04:51.263Z,2.07
2018-08-04T05:07:20.391Z,1.80
2018-08-04T05:09:49.481Z,1.77
2018-08-04T05:12:19.558Z,1.77
2018-08-04T05:14:48.867Z,2.00
2018-08-04T05:17:18.269Z,2.60
2018-08-04T05:19:47.402Z,2.13
2018-08-04T05:22:16.672Z,2.40
2018-08-04T05:24:45.805Z,2.20
2018-08-04T05:27:14.419Z,2.20
2018-08-04T05:29:43.806Z,2.00
2018-08-04T05:32:13.116Z,1.87
2018-08-04T05:34:42.429Z,2.27
2018-08-04T05:37:11.699Z,2.80
2018-08-04T05:39:40.919Z,1.97
2018-08-04T05:42:10.110Z,1.90
2018-08-04T05:44:40.014Z,2.40
2018-08-04T05:47:10.541Z,1.97
2018-08-04T05:49:49.392Z,1.93
2018-08-04T05:52:18.672Z,2.07
2018-08-04T05:54:47.808Z,1.97
2018-08-04T05:57:17.033Z,2.03
2018-08-04T05:59:46.664Z,2.37
2018-08-04T06:02:15.820Z,2.63
2018-08-04T06:04:46.403Z,2.43
2018-08-04T06:07:15.672Z,2.33
2018-08-04T06:09:45.320Z,2.33
2018-08-04T06:12:13.976Z,2.43
2018-08-04T06:14:43.046Z,2.50
2018-08-04T06:17:12.452Z,2.83
2018-08-04T06:19:41.620Z,2.10
2018-08-04T06:22:12.389Z,2.40
2018-08-04T06:24:41.816Z,2.63
2018-08-04T06:27:10.852Z,2.40
2018-08-04T06:29:39.995Z,2.20
2018-08-04T06:32:09.372Z,2.50
2018-08-04T06:34:38.630Z,2.13
2018-08-04T06:37:07.780Z,2.20
2018-08-04T06:39:36.994Z,2.50
2018-08-04T06:42:06.437Z,2.70
2018-08-04T06:44:35.040Z,2.70
2018-08-04T06:47:04.277Z,3.70
2018-08-04T06:49:33.482Z,2.50
2018-08-04T06:52:02.883Z,2.70
2018-08-04T06:54:32.119Z,2.90
2018-08-04T06:57:00.732Z,2.90
2018-08-04T06:59:32.760Z,2.30
2018-08-04T07:02:01.384Z,2.03
2018-08-04T07:04:30.440Z,1.80
2018-08-04T07:06:59.667Z,2.00
2018-08-04T07:09:29.385Z,2.00
2018-08-04T07:12:01.041Z,2.00
2018-08-04T07:14:29.538Z,2.40
2018-08-04T07:16:58.654Z,2.10
2018-08-04T07:19:28.108Z,2.00
2018-08-04T07:21:57.433Z,1.77
2018-08-04T07:24:26.647Z,2.07
2018-08-04T07:26:55.937Z,2.07
2018-08-04T07:29:25.823Z,1.93
2018-08-04T07:31:55.329Z,1.70
2018-08-04T07:34:25.060Z,1.87
2018-08-04T07:36:54.266Z,2.47
2018-08-04T07:39:23.507Z,2.20
2018-08-04T07:41:55.618Z,2.23
2018-08-04T07:44:24.756Z,1.70
2018-08-04T07:46:53.990Z,1.80
2018-08-04T07:49:23.063Z,2.00
2018-08-04T07:51:53.191Z,2.00
2018-08-04T07:54:22.259Z,1.93
2018-08-04T07:56:51.484Z,1.70
2018-08-04T07:59:20.238Z,1.30
2018-08-04T08:01:49.682Z,1.80
2018-08-04T08:04:20.933Z,1.60
2018-08-04T08:06:50.881Z,1.40
2018-08-04T08:09:21.304Z,1.60
2018-08-04T08:11:52.302Z,1.73
2018-08-04T08:14:21.530Z,1.43
2018-08-04T08:16:50.190Z,1.50
2018-08-04T08:19:19.388Z,1.10
2018-08-04T08:21:48.423Z,1.37
2018-08-04T08:24:18.194Z,0.97
2018-08-04T08:26:47.129Z,1.20
2018-08-04T08:29:15.853Z,1.20
2018-08-04T08:31:45.222Z,1.30
2018-08-04T08:34:14.600Z,1.60
2018-08-04T08:36:43.714Z,1.40
2018-08-04T08:39:12.835Z,1.03
2018-08-04T08:41:42.230Z,1.10
2018-08-04T08:44:11.393Z,1.10
2018-08-04T08:46:40.608Z,1.10
2018-08-04T08:49:09.735Z,1.50
2018-08-04T08:51:40.399Z,1.20
2018-08-04T08:54:10.516Z,1.07
2018-08-04T08:56:39.688Z,1.23
2018-08-04T08:59:09.005Z,1.43
2018-08-04T09:01:38.308Z,1.50
2018-08-04T09:04:06.975Z,1.30
2018-08-04T09:06:36.198Z,1.07
2018-08-04T09:09:07.711Z,1.20
2018-08-04T09:11:36.901Z,1.10
2018-08-04T09:14:06.643Z,2.07
2018-08-04T09:16:36.086Z,1.70
2018-08-04T09:19:05.460Z,1.20
2018-08-04T09:21:34.556Z,1.30
2018-08-04T09:24:03.690Z,1.70
2018-08-04T09:26:32.979Z,1.40
2018-08-04T09:29:02.145Z,1.40
2018-08-04T09:31:31.342Z,1.70
2018-08-04T09:34:01.171Z,1.60
2018-08-04T09:36:30.573Z,1.70
2018-08-04T09:38:59.843Z,2.00
2018-08-04T09:41:29.189Z,1.70
2018-08-04T09:43:58.383Z,1.50
2018-08-04T09:46:27.705Z,2.03
2018-08-04T09:48:56.848Z,1.63
2018-08-04T09:51:26.114Z,2.20
2018-08-04T09:53:55.486Z,2.30
2018-08-04T09:56:24.830Z,1.90
2018-08-04T09:58:54.214Z,2.17
2018-08-04T10:01:28.415Z,2.30
2018-08-04T10:03:57.563Z,2.17
2018-08-04T10:06:28.077Z,1.90
2018-08-04T10:08:57.311Z,2.30
2018-08-04T10:11:26.602Z,2.07
2018-08-04T10:13:55.763Z,2.10
2018-08-04T10:16:25.221Z,1.93
2018-08-04T10:18:54.294Z,2.10
2018-08-04T10:21:23.412Z,2.37
2018-08-04T10:23:52.258Z,2.27
2018-08-04T10:26:21.382Z,2.20
2018-08-04T10:28:51.288Z,2.60
2018-08-04T10:31:20.687Z,2.07
2018-08-04T10:33:49.818Z,2.13
2018-08-04T10:36:19.024Z,1.97
2018-08-04T10:38:47.803Z,2.27
2018-08-04T10:41:18.331Z,1.77
2018-08-04T10:43:48.489Z,2.27
2018-08-04T10:46:18.074Z,2.30
2018-08-04T10:48:47.067Z,2.13
2018-08-04T10:51:16.187Z,2.10
2018-08-04T10:53:45.372Z,2.37
2018-08-04T10:56:15.493Z,2.10
2018-08-04T10:58:44.250Z,2.13
2018-08-04T11:01:13.560Z,1.75
2018-08-04T11:03:42.856Z,2.30
2018-08-04T11:06:12.202Z,1.80
2018-08-04T11:08:41.246Z,2.12
2018-08-04T11:11:10.613Z,1.85
2018-08-04T11:13:39.782Z,2.05
2018-08-04T11:16:09.018Z,2.08
2018-08-04T11:18:38.258Z,1.82
2018-08-04T11:21:07.788Z,1.70
2018-08-04T11:23:37.042Z,1.82
2018-08-04T11:26:07.794Z,1.90
2018-08-04T11:28:37.194Z,1.92
2018-08-04T11:31:06.820Z,1.87
2018-08-04T11:33:36.243Z,1.95
2018-08-04T11:36:05.401Z,1.77
2018-08-04T11:38:34.505Z,1.87
2018-08-04T11:41:03.670Z,2.05
2018-08-04T11:43:32.868Z,2.33
2018-08-04T11:46:02.132Z,1.95
2018-08-04T11:48:31.096Z,1.95
2018-08-04T11:51:00.071Z,1.87
2018-08-04T11:53:28.987Z,1.95
2018-08-04T11:55:57.961Z,1.67
2018-08-04T11:58:27.822Z,2.12
2018-08-04T12:00:57.114Z,2.10
2018-08-04T12:03:26.273Z,2.12
2018-08-04T12:05:55.503Z,1.80
2018-08-04T12:08:24.701Z,2.22
2018-08-04T12:10:55.069Z,2.22
2018-08-04T12:13:24.247Z,2.27
2018-08-04T12:15:53.434Z,1.90
2018-08-04T12:18:22.717Z,2.08
2018-08-04T12:20:51.681Z,2.05
2018-08-04T12:23:20.726Z,1.82
2018-08-04T12:25:50.338Z,1.70
2018-08-04T12:28:20.094Z,1.90
2018-08-04T12:30:49.148Z,1.70
2018-08-04T12:33:18.473Z,1.80
2018-08-04T12:35:47.056Z,1.37
2018-08-04T12:38:16.334Z,1.98
2018-08-04T12:40:45.574Z,1.87
2018-08-04T12:43:15.065Z,2.00
2018-08-04T12:45:44.465Z,2.67
2018-08-04T12:48:14.042Z,1.65
2018-08-04T12:50:42.937Z,1.97
2018-08-04T12:53:12.279Z,1.80
2018-08-04T12:55:41.026Z,2.00
2018-08-04T12:58:10.367Z,1.67
2018-08-04T13:00:39.460Z,1.90
2018-08-04T13:03:08.439Z,1.70
2018-08-04T13:05:54.208Z,1.70
2018-08-04T13:11:20.997Z,1.60
2018-08-04T13:13:51.806Z,1.70
2018-08-04T13:16:21.149Z,1.50
2018-08-04T13:18:50.552Z,1.72
2018-08-04T13:21:19.813Z,1.85
2018-08-04T13:23:49.059Z,1.67
2018-08-04T13:26:18.342Z,1.45
2018-08-04T13:28:47.592Z,1.65
2018-08-04T13:31:17.241Z,1.70
2018-08-04T13:33:46.690Z,1.37
2018-08-04T13:36:15.846Z,1.27
2018-08-04T13:38:45.331Z,1.37
2018-08-04T13:41:14.637Z,1.80
2018-08-04T13:43:43.725Z,1.90
2018-08-04T13:46:13.006Z,1.50
2018-08-04T13:48:42.212Z,1.40
2018-08-04T13:51:11.429Z,1.30
2018-08-04T13:53:40.685Z,1.40
2018-08-04T13:56:09.831Z,1.25
2018-08-04T13:58:38.989Z,1.30
2018-08-04T14:01:09.589Z,1.20
2018-08-04T14:03:38.869Z,1.22
2018-08-04T14:06:08.013Z,1.30
2018-08-04T14:08:37.440Z,1.40
2018-08-04T14:11:06.885Z,1.30
2018-08-04T14:13:36.155Z,1.30
2018-08-04T14:16:05.502Z,1.50
2018-08-04T14:18:34.706Z,1.47
2018-08-04T14:21:04.007Z,1.47
2018-08-04T14:23:32.951Z,1.67
2018-08-04T14:26:01.937Z,1.62
2018-08-04T14:28:30.997Z,1.30
2018-08-04T14:30:59.788Z,1.45
2018-08-04T14:33:29.111Z,1.50
2018-08-04T14:35:58.498Z,1.20
2018-08-04T14:38:27.602Z,1.70
2018-08-04T14:40:56.898Z,1.45
2018-08-04T14:43:26.038Z,1.50
2018-08-04T14:45:55.091Z,1.30
2018-08-04T14:48:24.365Z,1.30
2018-08-04T14:50:53.940Z,1.52
2018-08-04T14:53:23.224Z,1.40
2018-08-04T14:55:52.500Z,1.40
2018-08-04T14:58:21.622Z,1.82
2018-08-04T15:00:50.924Z,1.60
2018-08-04T15:03:21.561Z,1.72
2018-08-04T15:05:50.940Z,1.90
2018-08-04T15:08:20.161Z,1.57
2018-08-04T15:10:49.065Z,1.82
2018-08-04T15:13:18.354Z,1.60
2018-08-04T15:15:47.814Z,1.50
2018-08-04T15:18:17.199Z,1.70
2018-08-04T15:20:46.678Z,1.80
2018-08-04T15:23:15.892Z,1.60
2018-08-04T15:25:45.415Z,1.60
2018-08-04T15:28:14.699Z,1.67
2018-08-04T15:30:44.087Z,1.65
2018-08-04T15:33:13.394Z,1.40
2018-08-04T15:35:42.632Z,1.93
2018-08-04T15:38:11.928Z,1.42
2018-08-04T15:40:41.336Z,1.33
2018-08-04T15:43:10.480Z,1.83
2018-08-04T15:45:39.651Z,1.67
2018-08-04T15:48:09.004Z,1.60
2018-08-04T15:50:38.330Z,1.80
2018-08-04T15:53:07.730Z,1.70
2018-08-04T15:55:36.832Z,1.17
2018-08-04T15:58:06.023Z,1.90
2018-08-04T16:00:35.344Z,2.03
2018-08-04T16:03:04.515Z,1.53
2018-08-04T16:05:33.749Z,1.90
2018-08-04T16:08:03.188Z,1.50
2018-08-04T16:10:32.513Z,1.60
2018-08-04T16:13:01.858Z,1.97
2018-08-04T16:15:31.387Z,1.40
2018-08-04T16:18:00.795Z,1.60
2018-08-04T16:20:30.044Z,2.23
2018-08-04T16:22:59.460Z,1.63
2018-08-04T16:25:28.596Z,1.87
2018-08-04T16:27:57.801Z,1.47
2018-08-04T16:30:26.963Z,1.50
2018-08-04T16:32:56.204Z,1.70
2018-08-04T16:35:25.255Z,1.77
2018-08-04T16:37:54.205Z,1.93
2018-08-04T16:40:22.878Z,2.10
2018-08-04T16:42:52.367Z,2.17
2018-08-04T16:45:21.491Z,1.97
2018-08-04T16:47:50.587Z,1.63
2018-08-04T16:50:19.752Z,2.20
2018-08-04T16:52:48.931Z,2.10
2018-08-04T16:55:18.286Z,2.13
2018-08-04T16:57:47.463Z,2.30
2018-08-04T17:00:16.797Z,2.00
2018-08-04T17:02:45.890Z,2.00
2018-08-04T17:05:15.533Z,2.90
2018-08-04T17:07:44.824Z,2.70
2018-08-04T17:10:14.123Z,2.33
2018-08-04T17:12:43.406Z,2.40
2018-08-04T17:15:12.531Z,2.20
2018-08-04T17:17:41.023Z,2.50
2018-08-04T17:20:09.662Z,2.30
2018-08-04T17:22:39.066Z,2.07
2018-08-04T17:25:08.302Z,2.90
2018-08-04T17:27:37.801Z,2.90
2018-08-04T17:30:07.285Z,2.40
2018-08-04T17:32:36.524Z,2.47
2018-08-04T17:35:05.914Z,2.93
2018-08-04T17:37:35.188Z,2.27
2018-08-04T17:40:04.252Z,2.17
2018-08-04T17:42:33.459Z,2.20
2018-08-04T17:45:02.834Z,2.20
2018-08-04T17:47:32.477Z,2.50
2018-08-04T17:50:01.842Z,2.60
2018-08-04T17:52:31.043Z,2.27
2018-08-04T17:55:00.259Z,2.20
2018-08-04T17:57:29.537Z,2.40
2018-08-04T17:59:58.825Z,2.30
2018-08-04T18:02:28.063Z,2.27
2018-08-04T18:04:57.342Z,2.10
2018-08-04T18:07:27.690Z,2.20
2018-08-04T18:09:56.893Z,2.47
2018-08-04T18:12:25.912Z,2.50
2018-08-04T18:14:55.180Z,2.20
2018-08-04T18:17:24.465Z,2.27
2018-08-04T18:19:53.601Z,2.83
2018-08-04T18:22:22.689Z,2.50
2018-08-04T18:24:52.062Z,2.50
2018-08-04T18:27:21.331Z,2.67
2018-08-04T18:29:50.189Z,2.90
2018-08-04T18:32:19.385Z,2.50
2018-08-04T18:34:48.738Z,2.40
2018-08-04T18:37:18.114Z,1.90
2018-08-04T18:39:47.310Z,1.83
2018-08-04T18:42:16.640Z,2.23
2018-08-04T18:44:46.055Z,1.90
2018-08-04T18:47:15.300Z,2.00
2018-08-04T18:49:44.500Z,2.33
2018-08-04T18:52:13.543Z,1.93
2018-08-04T18:54:42.713Z,2.30
2018-08-04T18:57:11.991Z,2.20
2018-08-04T18:59:41.238Z,1.90
2018-08-04T19:02:10.412Z,2.20
2018-08-04T19:04:39.841Z,1.93
2018-08-04T19:07:09.236Z,1.83
2018-08-04T19:09:40.103Z,1.90
2018-08-04T19:12:08.847Z,2.23
2018-08-04T19:14:38.271Z,2.23
2018-08-04T19:17:07.517Z,2.10
2018-08-04T19:19:36.631Z,1.80
2018-08-04T19:22:05.927Z,2.20
2018-08-04T19:24:35.155Z,1.83
2018-08-04T19:27:04.312Z,1.93
2018-08-04T19:29:33.433Z,2.20
2018-08-04T19:32:02.708Z,2.40
2018-08-04T19:34:31.910Z,1.97
2018-08-04T19:37:01.411Z,1.80
2018-08-04T19:39:33.957Z,2.00
2018-08-04T19:42:03.269Z,1.80
2018-08-04T19:44:32.404Z,1.87
2018-08-04T19:47:01.001Z,2.20
2018-08-04T19:49:30.084Z,1.67
2018-08-04T19:51:59.493Z,1.97
2018-08-04T19:54:28.776Z,2.10
2018-08-04T19:56:58.247Z,2.20
2018-08-04T19:59:27.395Z,2.27
2018-08-04T20:01:56.581Z,1.80
2018-08-04T20:04:25.712Z,1.60
2018-08-04T20:06:54.981Z,1.80
2018-08-04T20:09:24.096Z,1.50
2018-08-04T20:11:53.302Z,2.10
2018-08-04T20:14:22.357Z,1.93
2018-08-04T20:16:51.705Z,1.80
2018-08-04T20:19:21.029Z,2.90
2018-08-04T20:21:50.438Z,2.30
2018-08-04T20:24:19.732Z,2.83
2018-08-04T20:26:48.883Z,2.50
2018-08-04T20:29:18.174Z,2.53
2018-08-04T20:31:47.463Z,2.50
2018-08-04T20:34:16.633Z,2.67
2018-08-04T20:36:45.730Z,2.50
2018-08-04T20:39:14.927Z,2.40
2018-08-04T20:41:44.138Z,2.10
2018-08-04T20:44:13.348Z,2.43
2018-08-04T20:46:42.584Z,2.53
2018-08-04T20:49:11.958Z,2.30
2018-08-04T20:51:41.203Z,2.10
2018-08-04T20:54:10.367Z,2.03
2018-08-04T20:56:39.655Z,1.77
2018-08-04T20:59:08.549Z,1.80
2018-08-04T21:01:58.766Z,1.57
2018-08-04T21:04:29.034Z,1.80
2018-08-04T21:06:58.324Z,1.87
2018-08-04T21:09:28.023Z,2.00
2018-08-04T21:11:57.779Z,1.73
2018-08-04T21:14:27.819Z,1.87
2018-08-04T21:16:57.799Z,1.57
2018-08-04T21:19:27.281Z,1.80
2018-08-04T21:21:56.512Z,1.83
2018-08-04T21:24:26.508Z,1.63
2018-08-04T21:26:56.193Z,1.43
2018-08-04T21:29:25.130Z,1.90
2018-08-04T21:31:54.370Z,1.70
2018-08-04T21:34:23.360Z,1.40
2018-08-04T21:36:52.061Z,1.80
2018-08-04T21:39:20.970Z,1.70
2018-08-04T21:41:50.334Z,1.40
2018-08-04T21:44:19.650Z,1.80
2018-08-04T21:46:50.909Z,2.00
2018-08-04T21:49:20.588Z,1.90
2018-08-04T21:51:50.873Z,1.67
2018-08-04T21:54:20.473Z,1.63
2018-08-04T21:56:49.768Z,2.00
2018-08-04T21:59:18.475Z,1.73
2018-08-04T22:01:55.784Z,1.90
2018-08-04T22:04:25.415Z,1.60
2018-08-04T22:08:05.737Z,1.57
2018-08-04T22:10:36.609Z,1.67
2018-08-04T22:13:05.896Z,2.00
2018-08-04T22:15:35.101Z,2.00
2018-08-04T22:18:04.410Z,1.93
2018-08-04T22:20:33.637Z,1.80
2018-08-04T22:23:02.830Z,1.70
2018-08-04T22:25:32.210Z,1.60
2018-08-04T22:28:01.487Z,1.80
2018-08-04T22:30:30.845Z,1.60
2018-08-04T22:33:00.043Z,1.80
2018-08-04T22:35:29.263Z,1.60
2018-08-04T22:37:58.512Z,1.70
2018-08-04T22:40:27.853Z,1.67
2018-08-04T22:42:57.066Z,1.90
2018-08-04T22:45:46.733Z,2.10
2018-08-04T22:48:15.988Z,1.90
2018-08-04T22:50:45.384Z,1.73
2018-08-04T22:53:15.034Z,1.97
2018-08-04T22:55:45.065Z,2.20
2018-08-04T22:58:14.365Z,1.67
2018-08-04T23:00:44.537Z,1.80
2018-08-04T23:03:14.286Z,1.63
2018-08-04T23:05:43.490Z,1.77
2018-08-04T23:08:13.283Z,2.20
2018-08-04T23:10:44.536Z,2.03
2018-08-04T23:13:14.235Z,2.03
2018-08-04T23:15:43.489Z,1.90
2018-08-04T23:18:12.862Z,1.70
2018-08-04T23:20:42.419Z,2.00
2018-08-04T23:23:12.581Z,1.90
2018-08-04T23:25:41.932Z,1.87
2018-08-04T23:28:11.339Z,1.80
2018-08-04T23:30:40.645Z,2.10
2018-08-04T23:33:09.925Z,2.10
2018-08-04T23:35:39.366Z,2.17
2018-08-04T23:38:08.439Z,1.80
2018-08-04T23:40:37.665Z,2.13
2018-08-04T23:43:06.954Z,2.90
2018-08-04T23:45:36.579Z,2.53
2018-08-04T23:48:05.680Z,3.00
2018-08-04T23:50:34.953Z,2.10
2018-08-04T23:53:04.233Z,2.13
2018-08-04T23:55:33.816Z,2.40
2018-08-04T23:58:02.950Z,1.80
